This is the latest recevied weather packets stored in our database for station/object JP3QZN-13. If no packets are shown the sender has not sent any weather packets the latest 10 day(s).
| Time | Temp. | Humidity | Pressure | Rain* | Wind** | Luminosity | Snow |
|---|---|---|---|---|---|---|---|
| 1777462213 | 17.78° C | 54% | 1020.1 hPa | 0 mm | - | - | - |
| 1777460412 | 18.33° C | 54% | 1019.5 hPa | 0 mm | - | - | - |
| 1777458610 | 18.89° C | 53% | 1018.9 hPa | 0 mm | - | - | - |
| 1777456809 | 18.89° C | 53% | 1018.8 hPa | 0 mm | - | - | - |
| 1777455008 | 18.89° C | 53% | 1018.5 hPa | 0 mm | - | - | - |
| 1777453208 | 19.44° C | 52% | 1018.2 hPa | 0 mm | - | - | - |
| 1777451407 | 19.44° C | 51% | 1017.9 hPa | 0 mm | - | - | - |
| 1777449606 | 20° C | 50% | 1017.7 hPa | 0 mm | - | - | - |
| 1777447805 | 20.56° C | 49% | 1017.3 hPa | 0 mm | - | - | - |
| 1777446004 | 21.11° C | 49% | 1017 hPa | 0 mm | - | - | - |
| 1777444203 | 22.22° C | 48% | 1017 hPa | 0 mm | - | - | - |
| 1777442402 | 22.78° C | 47% | 1016.7 hPa | 0 mm | - | - | - |
| 1777440602 | 23.89° C | 45% | 1017.1 hPa | 0 mm | - | - | - |
| 1777438801 | 24.44° C | 43% | 1017 hPa | 0 mm | - | - | - |
| 1777437000 | 25.56° C | 42% | 1017 hPa | 0 mm | - | - | - |
| 1777435229 | 26.11° C | 41% | 1017.2 hPa | 0 mm | - | - | - |
| 1777433428 | 25.56° C | 43% | 1017.2 hPa | 0 mm | - | - | - |
| 1777431628 | 25° C | 43% | 1017.5 hPa | 0 mm | - | - | - |
| 1777429827 | 25° C | 43% | 1017.8 hPa | 0 mm | - | - | - |
| 1777428026 | 23.33° C | 44% | 1017.8 hPa | 0 mm | - | - | - |
| 1777426225 | 23.33° C | 43% | 1017.7 hPa | 0 mm | - | - | - |
| 1777424424 | 23.89° C | 43% | 1017.7 hPa | 0 mm | - | - | - |
| 1777422624 | 22.78° C | 45% | 1017.4 hPa | 0 mm | - | - | - |
| 1777420823 | 22.22° C | 47% | 1017.3 hPa | 0 mm | - | - | - |
| 1777419022 | 21.11° C | 50% | 1017 hPa | 0 mm | - | - | - |
* Rain latest hour (hover to see other rain measurements)
** Current wind speed in m/s (hover to see current wind gust speed)